sensor_id;sensor_type;location;lat;lon;timestamp;pressure;altitude;pressure_sealevel;temperature;humidity
54562;BME280;69047;53.358;-1.486;2024-03-02T00:00:26;98105.19;;;3.39;76.85
54562;BME280;69047;53.358;-1.486;2024-03-02T00:02:52;98109.47;;;3.40;76.79
54562;BME280;69047;53.358;-1.486;2024-03-02T00:05:22;98108.41;;;3.36;77.18
54562;BME280;69047;53.358;-1.486;2024-03-02T00:07:57;98108.38;;;3.21;77.57
54562;BME280;69047;53.358;-1.486;2024-03-02T00:10:37;98108.88;;;3.03;77.74
54562;BME280;69047;53.358;-1.486;2024-03-02T00:13:05;98099.97;;;2.62;79.69
54562;BME280;69047;53.358;-1.486;2024-03-02T00:15:41;98104.59;;;2.92;78.85
54562;BME280;69047;53.358;-1.486;2024-03-02T00:18:14;98101.06;;;2.71;79.19
54562;BME280;69047;53.358;-1.486;2024-03-02T00:20:42;98111.84;;;3.01;79.25
54562;BME280;69047;53.358;-1.486;2024-03-02T00:23:09;98103.78;;;2.91;78.54
54562;BME280;69047;53.358;-1.486;2024-03-02T00:25:44;98105.72;;;3.21;78.78
54562;BME280;69047;53.358;-1.486;2024-03-02T00:28:20;98098.78;;;3.45;77.17
54562;BME280;69047;53.358;-1.486;2024-03-02T00:30:54;98102.50;;;3.44;75.83
54562;BME280;69047;53.358;-1.486;2024-03-02T00:33:20;98097.69;;;3.56;76.39
54562;BME280;69047;53.358;-1.486;2024-03-02T00:35:46;98099.03;;;3.59;75.96
54562;BME280;69047;53.358;-1.486;2024-03-02T00:38:14;98103.06;;;3.66;76.40
54562;BME280;69047;53.358;-1.486;2024-03-02T00:40:41;98099.84;;;3.69;76.27
54562;BME280;69047;53.358;-1.486;2024-03-02T00:43:12;98101.16;;;3.77;76.20
54562;BME280;69047;53.358;-1.486;2024-03-02T00:45:49;98103.84;;;3.87;74.86
54562;BME280;69047;53.358;-1.486;2024-03-02T00:48:15;98102.25;;;3.81;75.24
54562;BME280;69047;53.358;-1.486;2024-03-02T00:50:41;98099.53;;;3.86;74.56
54562;BME280;69047;53.358;-1.486;2024-03-02T00:53:10;98101.44;;;3.70;75.30
54562;BME280;69047;53.358;-1.486;2024-03-02T00:55:37;98103.31;;;3.75;75.52
54562;BME280;69047;53.358;-1.486;2024-03-02T00:58:03;98103.03;;;3.86;75.37
54562;BME280;69047;53.358;-1.486;2024-03-02T01:00:28;98100.63;;;3.85;75.50
54562;BME280;69047;53.358;-1.486;2024-03-02T01:02:54;98103.00;;;3.91;75.20
54562;BME280;69047;53.358;-1.486;2024-03-02T01:05:20;98106.25;;;3.78;75.98
54562;BME280;69047;53.358;-1.486;2024-03-02T01:07:45;98106.25;;;3.78;76.44
54562;BME280;69047;53.358;-1.486;2024-03-02T01:10:11;98105.69;;;3.91;76.17
54562;BME280;69047;53.358;-1.486;2024-03-02T01:12:36;98098.47;;;3.77;76.10
54562;BME280;69047;53.358;-1.486;2024-03-02T01:15:04;98094.72;;;3.83;75.62
54562;BME280;69047;53.358;-1.486;2024-03-02T01:17:33;98095.81;;;3.82;75.92
54562;BME280;69047;53.358;-1.486;2024-03-02T01:19:58;98084.81;;;3.99;75.53
54562;BME280;69047;53.358;-1.486;2024-03-02T01:22:24;98087.78;;;3.87;76.14
54562;BME280;69047;53.358;-1.486;2024-03-02T01:24:51;98086.44;;;3.79;76.62
54562;BME280;69047;53.358;-1.486;2024-03-02T01:27:16;98089.09;;;3.89;76.17
54562;BME280;69047;53.358;-1.486;2024-03-02T01:29:42;98092.88;;;3.83;75.97
54562;BME280;69047;53.358;-1.486;2024-03-02T01:32:07;98087.22;;;4.00;75.68
54562;BME280;69047;53.358;-1.486;2024-03-02T01:34:36;98092.28;;;4.02;75.49
54562;BME280;69047;53.358;-1.486;2024-03-02T01:37:02;98096.31;;;4.04;75.23
54562;BME280;69047;53.358;-1.486;2024-03-02T01:39:28;98092.28;;;4.12;75.89
54562;BME280;69047;53.358;-1.486;2024-03-02T01:41:53;98098.19;;;4.09;75.65
54562;BME280;69047;53.358;-1.486;2024-03-02T01:44:19;98091.22;;;4.08;76.70
54562;BME280;69047;53.358;-1.486;2024-03-02T01:46:45;98079.94;;;4.21;76.45
54562;BME280;69047;53.358;-1.486;2024-03-02T01:49:12;98073.31;;;3.93;77.44
54562;BME280;69047;53.358;-1.486;2024-03-02T01:51:38;98071.97;;;3.85;77.43
54562;BME280;69047;53.358;-1.486;2024-03-02T01:54:03;98066.38;;;3.82;78.09
54562;BME280;69047;53.358;-1.486;2024-03-02T01:56:29;98062.88;;;3.76;77.78
54562;BME280;69047;53.358;-1.486;2024-03-02T01:58:54;98065.31;;;3.78;78.09
54562;BME280;69047;53.358;-1.486;2024-03-02T02:01:20;98067.69;;;3.79;78.43
54562;BME280;69047;53.358;-1.486;2024-03-02T02:03:45;98074.63;;;4.06;77.76
54562;BME280;69047;53.358;-1.486;2024-03-02T02:06:11;98080.53;;;3.82;77.67
54562;BME280;69047;53.358;-1.486;2024-03-02T02:08:39;98070.41;;;3.54;79.61
54562;BME280;69047;53.358;-1.486;2024-03-02T02:11:05;98072.53;;;3.72;79.53
54562;BME280;69047;53.358;-1.486;2024-03-02T02:13:30;98064.19;;;3.99;78.73
54562;BME280;69047;53.358;-1.486;2024-03-02T02:16:04;98064.97;;;4.05;77.83
54562;BME280;69047;53.358;-1.486;2024-03-02T02:18:29;98067.03;;;4.33;77.35
54562;BME280;69047;53.358;-1.486;2024-03-02T02:20:55;98066.22;;;4.37;76.88
54562;BME280;69047;53.358;-1.486;2024-03-02T02:23:20;98062.94;;;4.45;76.83
54562;BME280;69047;53.358;-1.486;2024-03-02T02:25:46;98064.53;;;4.57;76.67
54562;BME280;69047;53.358;-1.486;2024-03-02T02:28:11;98061.03;;;4.56;75.96
54562;BME280;69047;53.358;-1.486;2024-03-02T02:30:36;98054.09;;;4.50;75.69
54562;BME280;69047;53.358;-1.486;2024-03-02T02:33:02;98054.41;;;4.43;75.83
54562;BME280;69047;53.358;-1.486;2024-03-02T02:35:28;98057.88;;;4.44;76.08
54562;BME280;69047;53.358;-1.486;2024-03-02T02:37:55;98066.59;;;4.01;77.80
54562;BME280;69047;53.358;-1.486;2024-03-02T02:40:22;98055.28;;;4.24;77.21
54562;BME280;69047;53.358;-1.486;2024-03-02T02:42:47;98054.31;;;3.84;78.58
54562;BME280;69047;53.358;-1.486;2024-03-02T02:45:17;98055.91;;;3.90;79.06
54562;BME280;69047;53.358;-1.486;2024-03-02T02:47:44;98056.38;;;4.13;77.76
54562;BME280;69047;53.358;-1.486;2024-03-02T02:50:11;98050.41;;;4.31;77.72
54562;BME280;69047;53.358;-1.486;2024-03-02T02:52:38;98048.59;;;4.16;77.46
54562;BME280;69047;53.358;-1.486;2024-03-02T02:55:06;98052.13;;;4.12;77.91
54562;BME280;69047;53.358;-1.486;2024-03-02T02:57:33;98040.06;;;4.09;78.51
54562;BME280;69047;53.358;-1.486;2024-03-02T03:00:08;98034.41;;;4.21;77.99
54562;BME280;69047;53.358;-1.486;2024-03-02T03:02:43;98033.00;;;4.38;77.35
54562;BME280;69047;53.358;-1.486;2024-03-02T03:05:10;98034.03;;;4.42;77.16
54562;BME280;69047;53.358;-1.486;2024-03-02T03:07:36;98038.66;;;4.32;77.95
54562;BME280;69047;53.358;-1.486;2024-03-02T03:10:02;98034.97;;;4.13;79.10
54562;BME280;69047;53.358;-1.486;2024-03-02T03:12:29;98040.13;;;3.94;79.27
54562;BME280;69047;53.358;-1.486;2024-03-02T03:14:55;98033.09;;;4.08;79.63
54562;BME280;69047;53.358;-1.486;2024-03-02T03:17:24;98032.50;;;4.21;79.56
54562;BME280;69047;53.358;-1.486;2024-03-02T03:19:50;98030.88;;;4.30;78.64
54562;BME280;69047;53.358;-1.486;2024-03-02T03:22:15;98028.41;;;4.44;78.33
54562;BME280;69047;53.358;-1.486;2024-03-02T03:24:41;98028.44;;;4.34;78.24
54562;BME280;69047;53.358;-1.486;2024-03-02T03:27:06;98030.63;;;4.27;78.45
54562;BME280;69047;53.358;-1.486;2024-03-02T03:29:32;98025.66;;;4.00;80.06
54562;BME280;69047;53.358;-1.486;2024-03-02T03:31:57;98027.53;;;3.89;79.96
54562;BME280;69047;53.358;-1.486;2024-03-02T03:34:25;98028.13;;;3.66;80.69
54562;BME280;69047;53.358;-1.486;2024-03-02T03:36:54;98016.81;;;4.00;80.61
54562;BME280;69047;53.358;-1.486;2024-03-02T03:39:19;98019.75;;;4.03;79.62
54562;BME280;69047;53.358;-1.486;2024-03-02T03:41:45;98016.25;;;3.98;79.17
54562;BME280;69047;53.358;-1.486;2024-03-02T03:44:10;98025.63;;;4.05;79.74
54562;BME280;69047;53.358;-1.486;2024-03-02T03:46:36;98019.09;;;4.31;78.58
54562;BME280;69047;53.358;-1.486;2024-03-02T03:49:01;98026.13;;;4.12;77.92
54562;BME280;69047;53.358;-1.486;2024-03-02T03:51:29;98025.81;;;4.24;78.56
54562;BME280;69047;53.358;-1.486;2024-03-02T03:53:55;98023.91;;;4.34;77.88
54562;BME280;69047;53.358;-1.486;2024-03-02T03:56:21;98027.16;;;4.26;78.58
54562;BME280;69047;53.358;-1.486;2024-03-02T03:58:46;98027.44;;;4.20;78.31
54562;BME280;69047;53.358;-1.486;2024-03-02T04:01:11;98025.94;;;3.94;79.26
54562;BME280;69047;53.358;-1.486;2024-03-02T04:03:38;98028.88;;;3.97;79.31
54562;BME280;69047;53.358;-1.486;2024-03-02T04:06:03;98036.03;;;4.07;79.84
54562;BME280;69047;53.358;-1.486;2024-03-02T04:08:29;98024.75;;;4.20;79.78
54562;BME280;69047;53.358;-1.486;2024-03-02T04:10:54;98029.75;;;3.67;80.79
54562;BME280;69047;53.358;-1.486;2024-03-02T04:13:19;98032.34;;;3.92;80.23
54562;BME280;69047;53.358;-1.486;2024-03-02T04:15:45;98031.41;;;4.32;79.67
54562;BME280;69047;53.358;-1.486;2024-03-02T04:18:10;98027.94;;;4.32;79.51
54562;BME280;69047;53.358;-1.486;2024-03-02T04:20:36;98028.03;;;4.61;78.55
54562;BME280;69047;53.358;-1.486;2024-03-02T04:23:02;98029.81;;;4.80;78.11
54562;BME280;69047;53.358;-1.486;2024-03-02T04:25:27;98026.84;;;4.82;77.75
54562;BME280;69047;53.358;-1.486;2024-03-02T04:27:53;98033.88;;;4.78;77.74
54562;BME280;69047;53.358;-1.486;2024-03-02T04:30:18;98030.59;;;4.81;77.05
54562;BME280;69047;53.358;-1.486;2024-03-02T04:32:43;98027.97;;;4.22;79.12
54562;BME280;69047;53.358;-1.486;2024-03-02T04:35:11;98031.88;;;3.75;81.46
54562;BME280;69047;53.358;-1.486;2024-03-02T04:37:38;98033.19;;;3.88;81.38
54562;BME280;69047;53.358;-1.486;2024-03-02T04:40:04;98031.81;;;3.85;81.75
54562;BME280;69047;53.358;-1.486;2024-03-02T04:42:33;98031.88;;;3.60;82.46
54562;BME280;69047;53.358;-1.486;2024-03-02T04:44:58;98031.38;;;3.43;83.46
54562;BME280;69047;53.358;-1.486;2024-03-02T04:47:23;98027.88;;;3.48;83.01
54562;BME280;69047;53.358;-1.486;2024-03-02T04:49:49;98037.25;;;3.50;82.92
54562;BME280;69047;53.358;-1.486;2024-03-02T04:52:14;98033.50;;;3.51;83.56
54562;BME280;69047;53.358;-1.486;2024-03-02T04:54:40;98035.34;;;3.71;82.24
54562;BME280;69047;53.358;-1.486;2024-03-02T04:57:24;98033.47;;;3.81;82.54
54562;BME280;69047;53.358;-1.486;2024-03-02T04:59:49;98036.16;;;3.56;82.70
54562;BME280;69047;53.358;-1.486;2024-03-02T05:02:14;98042.84;;;3.59;83.14
54562;BME280;69047;53.358;-1.486;2024-03-02T05:04:40;98032.34;;;3.92;82.19
54562;BME280;69047;53.358;-1.486;2024-03-02T05:07:06;98040.13;;;3.94;80.96
54562;BME280;69047;53.358;-1.486;2024-03-02T05:09:31;98035.84;;;3.93;81.48
54562;BME280;69047;53.358;-1.486;2024-03-02T05:11:57;98031.22;;;4.04;80.85
54562;BME280;69047;53.358;-1.486;2024-03-02T05:14:48;98029.97;;;3.81;81.26
54562;BME280;69047;53.358;-1.486;2024-03-02T05:17:14;98026.03;;;3.58;82.22
54562;BME280;69047;53.358;-1.486;2024-03-02T05:19:39;98031.56;;;3.87;81.86
54562;BME280;69047;53.358;-1.486;2024-03-02T05:22:05;98029.75;;;3.67;81.64
54562;BME280;69047;53.358;-1.486;2024-03-02T05:24:31;98030.00;;;3.56;83.06
54562;BME280;69047;53.358;-1.486;2024-03-02T05:26:57;98027.56;;;3.74;82.97
54562;BME280;69047;53.358;-1.486;2024-03-02T05:29:22;98042.03;;;3.78;81.82
54562;BME280;69047;53.358;-1.486;2024-03-02T05:31:48;98041.78;;;3.34;83.21
54562;BME280;69047;53.358;-1.486;2024-03-02T05:34:14;98041.25;;;3.63;83.26
54562;BME280;69047;53.358;-1.486;2024-03-02T05:36:40;98048.22;;;3.44;83.24
54562;BME280;69047;53.358;-1.486;2024-03-02T05:39:05;98044.97;;;3.62;84.04
54562;BME280;69047;53.358;-1.486;2024-03-02T05:41:34;98048.22;;;3.23;84.44
54562;BME280;69047;53.358;-1.486;2024-03-02T05:44:00;98042.31;;;3.62;83.58
54562;BME280;69047;53.358;-1.486;2024-03-02T05:46:27;98050.09;;;3.23;84.04
54562;BME280;69047;53.358;-1.486;2024-03-02T05:48:53;98036.97;;;3.62;83.66
54562;BME280;69047;53.358;-1.486;2024-03-02T05:51:18;98036.72;;;3.43;83.34
54562;BME280;69047;53.358;-1.486;2024-03-02T05:53:43;98037.53;;;3.33;84.13
54562;BME280;69047;53.358;-1.486;2024-03-02T05:56:09;98031.38;;;3.58;83.57
54562;BME280;69047;53.358;-1.486;2024-03-02T05:58:34;98028.09;;;3.86;82.58
54562;BME280;69047;53.358;-1.486;2024-03-02T06:01:19;98037.00;;;3.37;83.02
54562;BME280;69047;53.358;-1.486;2024-03-02T06:03:44;98032.94;;;3.69;83.16
54562;BME280;69047;53.358;-1.486;2024-03-02T06:06:10;98039.31;;;3.88;82.07
54562;BME280;69047;53.358;-1.486;2024-03-02T06:08:35;98046.84;;;3.81;82.46
54562;BME280;69047;53.358;-1.486;2024-03-02T06:11:03;98044.41;;;3.80;82.45
54562;BME280;69047;53.358;-1.486;2024-03-02T06:13:29;98048.94;;;3.95;82.50
54562;BME280;69047;53.358;-1.486;2024-03-02T06:15:54;98040.91;;;3.89;82.15
54562;BME280;69047;53.358;-1.486;2024-03-02T06:18:20;98053.25;;;3.90;82.21
54562;BME280;69047;53.358;-1.486;2024-03-02T06:20:45;98055.97;;;3.50;82.11
54562;BME280;69047;53.358;-1.486;2024-03-02T06:23:11;98053.28;;;3.50;82.78
54562;BME280;69047;53.358;-1.486;2024-03-02T06:25:36;98051.16;;;3.47;83.36
54562;BME280;69047;53.358;-1.486;2024-03-02T06:28:02;98052.19;;;3.76;83.56
54562;BME280;69047;53.358;-1.486;2024-03-02T06:30:27;98055.97;;;3.60;83.10
54562;BME280;69047;53.358;-1.486;2024-03-02T06:32:53;98052.22;;;3.56;83.76
54562;BME280;69047;53.358;-1.486;2024-03-02T06:35:18;98055.69;;;3.67;83.34
54562;BME280;69047;53.358;-1.486;2024-03-02T06:37:44;98057.53;;;3.86;83.23
54562;BME280;69047;53.358;-1.486;2024-03-02T06:40:09;98053.50;;;3.94;82.86
54562;BME280;69047;53.358;-1.486;2024-03-02T06:42:35;98061.03;;;3.72;83.28
54562;BME280;69047;53.358;-1.486;2024-03-02T06:45:02;98060.53;;;3.55;83.63
54562;BME280;69047;53.358;-1.486;2024-03-02T06:47:34;98054.84;;;3.86;83.44
54562;BME280;69047;53.358;-1.486;2024-03-02T06:49:59;98069.34;;;3.50;84.07
54562;BME280;69047;53.358;-1.486;2024-03-02T06:52:24;98061.28;;;3.70;83.49
54562;BME280;69047;53.358;-1.486;2024-03-02T06:54:50;98065.88;;;3.34;84.53
54562;BME280;69047;53.358;-1.486;2024-03-02T06:57:15;98068.00;;;3.63;84.38
54562;BME280;69047;53.358;-1.486;2024-03-02T06:59:42;98063.41;;;3.83;83.41
54562;BME280;69047;53.358;-1.486;2024-03-02T07:02:07;98068.81;;;3.53;83.89
54562;BME280;69047;53.358;-1.486;2024-03-02T07:04:34;98071.50;;;3.33;85.02
54562;BME280;69047;53.358;-1.486;2024-03-02T07:06:59;98067.97;;;3.78;84.54
54562;BME280;69047;53.358;-1.486;2024-03-02T07:09:24;98066.16;;;3.48;84.64
54562;BME280;69047;53.358;-1.486;2024-03-02T07:11:51;98076.31;;;3.46;84.54
54562;BME280;69047;53.358;-1.486;2024-03-02T07:14:20;98069.84;;;3.77;84.28
54562;BME280;69047;53.358;-1.486;2024-03-02T07:17:08;98073.59;;;3.81;84.18
54562;BME280;69047;53.358;-1.486;2024-03-02T07:19:35;98074.97;;;3.64;83.77
54562;BME280;69047;53.358;-1.486;2024-03-02T07:22:00;98081.59;;;3.97;83.45
54562;BME280;69047;53.358;-1.486;2024-03-02T07:24:26;98082.72;;;3.35;84.76
54562;BME280;69047;53.358;-1.486;2024-03-02T07:26:52;98074.16;;;3.78;84.16
54562;BME280;69047;53.358;-1.486;2024-03-02T07:29:17;98082.16;;;3.73;84.05
54562;BME280;69047;53.358;-1.486;2024-03-02T07:31:43;98073.88;;;3.70;84.28
54562;BME280;69047;53.358;-1.486;2024-03-02T07:34:21;98064.50;;;3.77;84.21
54562;BME280;69047;53.358;-1.486;2024-03-02T07:36:48;98070.91;;;3.86;84.12
54562;BME280;69047;53.358;-1.486;2024-03-02T07:39:13;98069.91;;;3.52;84.03
54562;BME280;69047;53.358;-1.486;2024-03-02T07:41:39;98070.69;;;3.73;84.55
54562;BME280;69047;53.358;-1.486;2024-03-02T07:44:04;98069.31;;;3.80;84.28
54562;BME280;69047;53.358;-1.486;2024-03-02T07:46:30;98067.75;;;3.39;84.98
54562;BME280;69047;53.358;-1.486;2024-03-02T07:48:55;98068.78;;;3.68;85.36
54562;BME280;69047;53.358;-1.486;2024-03-02T07:51:20;98061.81;;;3.77;84.17
54562;BME280;69047;53.358;-1.486;2024-03-02T07:53:46;98073.91;;;3.29;85.02
54562;BME280;69047;53.358;-1.486;2024-03-02T07:56:11;98064.53;;;3.47;85.15
54562;BME280;69047;53.358;-1.486;2024-03-02T07:58:37;98069.09;;;3.37;84.70
54562;BME280;69047;53.358;-1.486;2024-03-02T08:01:02;98073.09;;;3.64;84.66
54562;BME280;69047;53.358;-1.486;2024-03-02T08:03:28;98078.44;;;3.69;83.89
54562;BME280;69047;53.358;-1.486;2024-03-02T08:05:53;98072.03;;;3.45;83.51
54562;BME280;69047;53.358;-1.486;2024-03-02T08:08:19;98061.84;;;3.72;84.17
54562;BME280;69047;53.358;-1.486;2024-03-02T08:10:44;98069.25;;;4.01;83.43
54562;BME280;69047;53.358;-1.486;2024-03-02T08:13:09;98076.75;;;4.04;83.14
54562;BME280;69047;53.358;-1.486;2024-03-02T08:15:35;98079.75;;;3.97;82.79
54562;BME280;69047;53.358;-1.486;2024-03-02T08:18:01;98080.00;;;3.96;83.09
54562;BME280;69047;53.358;-1.486;2024-03-02T08:20:26;98075.13;;;4.13;83.53
54562;BME280;69047;53.358;-1.486;2024-03-02T08:22:52;98082.69;;;3.90;83.07
54562;BME280;69047;53.358;-1.486;2024-03-02T08:25:20;98074.97;;;3.49;84.29
54562;BME280;69047;53.358;-1.486;2024-03-02T08:27:45;98081.63;;;3.76;84.06
54562;BME280;69047;53.358;-1.486;2024-03-02T08:30:11;98085.09;;;3.87;83.58
54562;BME280;69047;53.358;-1.486;2024-03-02T08:32:37;98086.97;;;3.97;83.44
54562;BME280;69047;53.358;-1.486;2024-03-02T08:35:03;98077.06;;;3.92;83.09
54562;BME280;69047;53.358;-1.486;2024-03-02T08:37:29;98079.22;;;3.65;84.36
54562;BME280;69047;53.358;-1.486;2024-03-02T08:39:54;98089.41;;;3.68;84.18
54562;BME280;69047;53.358;-1.486;2024-03-02T08:42:20;98088.88;;;3.56;84.87
54562;BME280;69047;53.358;-1.486;2024-03-02T08:44:46;98086.16;;;3.96;85.18
54562;BME280;69047;53.358;-1.486;2024-03-02T08:47:11;98087.47;;;3.99;84.08
54562;BME280;69047;53.358;-1.486;2024-03-02T08:49:37;98082.63;;;4.16;84.44
54562;BME280;69047;53.358;-1.486;2024-03-02T08:52:02;98086.19;;;3.91;83.66
54562;BME280;69047;53.358;-1.486;2024-03-02T08:54:29;98087.47;;;3.99;83.63
54562;BME280;69047;53.358;-1.486;2024-03-02T08:56:56;98083.75;;;3.79;84.01
54562;BME280;69047;53.358;-1.486;2024-03-02T08:59:22;98085.09;;;3.97;84.66
54562;BME280;69047;53.358;-1.486;2024-03-02T09:01:47;98083.13;;;4.33;83.70
54562;BME280;69047;53.358;-1.486;2024-03-02T09:04:13;98080.88;;;4.55;83.19
54562;BME280;69047;53.358;-1.486;2024-03-02T09:06:47;98087.47;;;3.99;84.03
54562;BME280;69047;53.358;-1.486;2024-03-02T09:09:13;98088.50;;;4.13;83.82
54562;BME280;69047;53.358;-1.486;2024-03-02T09:11:41;98069.94;;;4.36;83.70
54562;BME280;69047;53.358;-1.486;2024-03-02T09:14:09;98074.09;;;3.99;84.12
54562;BME280;69047;53.358;-1.486;2024-03-02T09:16:40;98060.63;;;4.29;83.73
54562;BME280;69047;53.358;-1.486;2024-03-02T09:19:05;98060.88;;;4.27;83.66
54562;BME280;69047;53.358;-1.486;2024-03-02T09:21:31;98058.63;;;4.60;83.17
54562;BME280;69047;53.358;-1.486;2024-03-02T09:23:57;98064.59;;;4.41;83.77
54562;BME280;69047;53.358;-1.486;2024-03-02T09:26:22;98058.06;;;4.63;83.64
54562;BME280;69047;53.358;-1.486;2024-03-02T09:28:50;98057.72;;;4.74;83.16
54562;BME280;69047;53.358;-1.486;2024-03-02T09:31:16;98047.06;;;4.64;82.65
54562;BME280;69047;53.358;-1.486;2024-03-02T09:33:42;98047.25;;;4.19;84.57
54562;BME280;69047;53.358;-1.486;2024-03-02T09:36:21;98054.69;;;4.42;84.21
54562;BME280;69047;53.358;-1.486;2024-03-02T09:38:47;98048.63;;;4.70;83.50
54562;BME280;69047;53.358;-1.486;2024-03-02T09:41:14;98044.97;;;4.56;83.52
54562;BME280;69047;53.358;-1.486;2024-03-02T09:43:40;98042.84;;;4.48;83.67
54562;BME280;69047;53.358;-1.486;2024-03-02T09:46:07;98050.25;;;4.66;83.35
54562;BME280;69047;53.358;-1.486;2024-03-02T09:48:34;98044.28;;;5.18;82.71
54562;BME280;69047;53.358;-1.486;2024-03-02T09:51:00;98040.00;;;4.83;82.92
54562;BME280;69047;53.358;-1.486;2024-03-02T09:53:31;98041.00;;;4.87;82.89
54562;BME280;69047;53.358;-1.486;2024-03-02T09:55:56;98032.09;;;4.58;83.07
54562;BME280;69047;53.358;-1.486;2024-03-02T09:58:22;98031.63;;;4.41;83.34
54562;BME280;69047;53.358;-1.486;2024-03-02T10:00:47;98031.91;;;4.88;83.52
54562;BME280;69047;53.358;-1.486;2024-03-02T10:03:14;98039.22;;;4.78;83.11
54562;BME280;69047;53.358;-1.486;2024-03-02T10:05:40;98036.94;;;4.51;84.08
54562;BME280;69047;53.358;-1.486;2024-03-02T10:08:08;98038.84;;;4.45;84.45
54562;BME280;69047;53.358;-1.486;2024-03-02T10:10:37;98042.06;;;4.47;84.41
54562;BME280;69047;53.358;-1.486;2024-03-02T10:13:11;98030.75;;;4.56;85.37
54562;BME280;69047;53.358;-1.486;2024-03-02T10:15:38;98037.41;;;4.68;84.74
54562;BME280;69047;53.358;-1.486;2024-03-02T10:18:11;98035.66;;;4.87;84.56
54562;BME280;69047;53.358;-1.486;2024-03-02T10:20:37;98035.47;;;4.74;85.25
54562;BME280;69047;53.358;-1.486;2024-03-02T10:23:14;98026.69;;;4.63;85.04
54562;BME280;69047;53.358;-1.486;2024-03-02T10:25:42;98017.34;;;4.99;84.92
54562;BME280;69047;53.358;-1.486;2024-03-02T10:28:07;98017.78;;;5.12;84.86
54562;BME280;69047;53.358;-1.486;2024-03-02T10:30:34;98027.69;;;4.77;84.03
54562;BME280;69047;53.358;-1.486;2024-03-02T10:33:01;98024.72;;;4.79;85.68
54562;BME280;69047;53.358;-1.486;2024-03-02T10:35:27;98022.25;;;4.92;85.76
54562;BME280;69047;53.358;-1.486;2024-03-02T10:37:53;98022.63;;;5.10;84.80
54562;BME280;69047;53.358;-1.486;2024-03-02T10:40:21;98026.44;;;5.03;85.51
54562;BME280;69047;53.358;-1.486;2024-03-02T10:42:47;98022.88;;;5.13;84.63
54562;BME280;69047;53.358;-1.486;2024-03-02T10:45:24;98029.84;;;5.48;84.58
54562;BME280;69047;53.358;-1.486;2024-03-02T10:47:51;98021.09;;;5.37;84.10
54562;BME280;69047;53.358;-1.486;2024-03-02T10:50:16;98023.03;;;5.27;84.76
54562;BME280;69047;53.358;-1.486;2024-03-02T10:52:42;98013.78;;;5.09;85.24
54562;BME280;69047;53.358;-1.486;2024-03-02T10:55:08;98015.19;;;5.01;85.67
54562;BME280;69047;53.358;-1.486;2024-03-02T10:57:54;98008.94;;;5.11;85.26
54562;BME280;69047;53.358;-1.486;2024-03-02T11:00:24;98019.16;;;5.43;84.73
54562;BME280;69047;53.358;-1.486;2024-03-02T11:03:04;98017.16;;;5.25;85.33
54562;BME280;69047;53.358;-1.486;2024-03-02T11:05:36;98014.44;;;5.30;85.20
54562;BME280;69047;53.358;-1.486;2024-03-02T11:08:08;98023.97;;;5.41;84.64
54562;BME280;69047;53.358;-1.486;2024-03-02T11:10:41;98021.22;;;5.17;85.54
54562;BME280;69047;53.358;-1.486;2024-03-02T11:13:12;98017.22;;;5.48;85.20
54562;BME280;69047;53.358;-1.486;2024-03-02T11:15:39;98010.44;;;5.56;85.10
54562;BME280;69047;53.358;-1.486;2024-03-02T11:18:06;98010.00;;;5.73;85.27
54562;BME280;69047;53.358;-1.486;2024-03-02T11:20:41;98016.31;;;5.87;85.08
54562;BME280;69047;53.358;-1.486;2024-03-02T11:23:08;98012.97;;;6.42;84.14
54562;BME280;69047;53.358;-1.486;2024-03-02T11:25:35;98008.25;;;6.34;84.12
54562;BME280;69047;53.358;-1.486;2024-03-02T11:28:02;98008.38;;;6.00;84.17
54562;BME280;69047;53.358;-1.486;2024-03-02T11:33:00;98002.66;;;6.07;84.30
54562;BME280;69047;53.358;-1.486;2024-03-02T11:35:30;98000.53;;;5.85;85.00
54562;BME280;69047;53.358;-1.486;2024-03-02T11:37:56;98001.28;;;5.86;84.91
54562;BME280;69047;53.358;-1.486;2024-03-02T11:40:27;98007.81;;;6.03;84.51
54562;BME280;69047;53.358;-1.486;2024-03-02T11:42:53;98005.13;;;6.46;84.15
54562;BME280;69047;53.358;-1.486;2024-03-02T11:45:31;98001.09;;;6.06;84.16
54562;BME280;69047;53.358;-1.486;2024-03-02T11:47:59;97990.63;;;6.04;84.58
54562;BME280;69047;53.358;-1.486;2024-03-02T11:50:34;97996.69;;;6.34;84.54
54562;BME280;69047;53.358;-1.486;2024-03-02T11:53:01;97995.91;;;6.09;85.04
54562;BME280;69047;53.358;-1.486;2024-03-02T11:55:26;97994.09;;;6.29;84.76
54562;BME280;69047;53.358;-1.486;2024-03-02T11:57:52;97994.59;;;6.07;84.25
54562;BME280;69047;53.358;-1.486;2024-03-02T12:00:19;97986.25;;;6.32;84.14
54562;BME280;69047;53.358;-1.486;2024-03-02T12:02:48;97995.31;;;6.36;84.00
54562;BME280;69047;53.358;-1.486;2024-03-02T12:05:24;97986.09;;;6.42;84.02
54562;BME280;69047;53.358;-1.486;2024-03-02T12:08:02;97981.75;;;6.46;83.47
54562;BME280;69047;53.358;-1.486;2024-03-02T12:10:29;97981.63;;;6.14;83.42
54562;BME280;69047;53.358;-1.486;2024-03-02T12:13:02;97981.91;;;6.74;82.84
54562;BME280;69047;53.358;-1.486;2024-03-02T12:15:37;97977.91;;;6.90;82.14
54562;BME280;69047;53.358;-1.486;2024-03-02T12:18:03;97972.44;;;6.76;82.38
54562;BME280;69047;53.358;-1.486;2024-03-02T12:20:36;97965.59;;;7.02;81.87
54562;BME280;69047;53.358;-1.486;2024-03-02T12:23:04;97971.19;;;7.38;81.09
54562;BME280;69047;53.358;-1.486;2024-03-02T12:25:31;97967.06;;;6.76;81.67
54562;BME280;69047;53.358;-1.486;2024-03-02T12:28:00;97968.88;;;6.99;82.67
54562;BME280;69047;53.358;-1.486;2024-03-02T12:30:29;97969.84;;;7.22;81.58
54562;BME280;69047;53.358;-1.486;2024-03-02T12:32:54;97963.09;;;7.24;81.52
54562;BME280;69047;53.358;-1.486;2024-03-02T12:35:20;97960.59;;;7.28;81.14
54562;BME280;69047;53.358;-1.486;2024-03-02T12:37:50;97963.00;;;6.79;82.00
54562;BME280;69047;53.358;-1.486;2024-03-02T12:40:17;97955.56;;;7.40;81.80
54562;BME280;69047;53.358;-1.486;2024-03-02T12:42:47;97952.94;;;7.35;78.86
54562;BME280;69047;53.358;-1.486;2024-03-02T12:45:18;97951.75;;;7.09;79.34
54562;BME280;69047;53.358;-1.486;2024-03-02T12:47:53;97961.47;;;7.23;80.74
54562;BME280;69047;53.358;-1.486;2024-03-02T12:50:19;97953.94;;;7.39;79.95
54562;BME280;69047;53.358;-1.486;2024-03-02T12:52:51;97952.66;;;7.50;79.42
54562;BME280;69047;53.358;-1.486;2024-03-02T12:55:17;97961.72;;;7.41;78.70
54562;BME280;69047;53.358;-1.486;2024-03-02T12:57:43;97961.06;;;7.16;78.26
54562;BME280;69047;53.358;-1.486;2024-03-02T13:00:09;97964.47;;;7.22;76.00
54562;BME280;69047;53.358;-1.486;2024-03-02T13:02:36;97962.91;;;7.35;75.83